Time;durP1;ratioP1;P1;durP2;ratioP2;P2;SDS_P1;SDS_P2;PMS_P1;PMS_P2;Temp;Humidity;BMP_temperature;BMP_pressure;BME280_temperature;BME280_humidity;BME280_pressure;Samples;Min_cycle;Max_cycle;Signal;HPM_P1;HPM_P2
2021/05/06 08:15:57;;;;;;;10.90;4.32;;;11.50;99.90;;;;;;12049109;27;20361;-80
2021/05/06 09:56:28;;;;;;;10.27;5.40;;;10.20;99.90;;;;;;12116163;27;20399;-85
2021/05/06 10:02:17;;;;;;;9.18;5.28;;;10.80;99.90;;;;;;12045380;28;20519;-85
2021/05/06 10:14:28;;;;;;;9.13;3.90;;;12.20;99.90;;;;;;12037130;27;20873;-83
2021/05/06 10:20:14;;;;;;;5.95;3.35;;;12.40;99.90;;;;;;11954038;28;20042;-86
2021/05/06 10:37:23;;;;;;;15.15;7.03;;;11.80;99.90;;;;;;12123495;27;20387;-78
2021/05/06 10:43:24;;;;;;;5.22;3.20;;;12.00;99.90;;;;;;12085631;28;20052;-78
2021/05/06 10:49:11;;;;;;;4.97;3.03;;;12.30;99.90;;;;;;12066895;28;20049;-79
2021/05/06 10:54:58;;;;;;;5.75;3.08;;;12.60;99.90;;;;;;12059873;28;20045;-78
2021/05/06 11:00:44;;;;;;;4.43;2.30;;;12.80;99.90;;;;;;12079419;28;20063;-78
2021/05/06 11:06:37;;;;;;;3.03;1.92;;;12.80;99.90;;;;;;12086690;28;20040;-79
2021/05/06 11:12:41;;;;;;;4.68;2.30;;;12.90;99.90;;;;;;12084204;28;20045;-78
2021/05/06 11:18:39;;;;;;;;;;;13.00;99.90;;;;;;12086842;28;20074;-78
2021/05/06 11:24:27;;;;;;;2.47;2.17;;;13.00;99.90;;;;;;12082730;28;19920;-80
2021/05/06 11:30:32;;;;;;;3.40;2.20;;;13.10;99.90;;;;;;12083260;28;20483;-80
2021/05/06 11:36:20;;;;;;;2.55;2.30;;;13.20;99.90;;;;;;12088640;28;20048;-81
2021/05/06 11:42:10;;;;;;;6.70;3.40;;;13.30;99.90;;;;;;12085732;28;20044;-78
2021/05/06 11:47:57;;;;;;;3.72;2.60;;;13.50;99.90;;;;;;12045793;28;20045;-80
2021/05/06 11:53:44;;;;;;;2.60;2.20;;;13.80;99.90;;;;;;12000129;28;20049;-80
2021/05/06 11:59:32;;;;;;;2.30;2.10;;;13.90;99.90;;;;;;12045343;28;20101;-81
2021/05/06 12:05:20;;;;;;;2.38;1.90;;;13.90;99.90;;;;;;11998732;28;20052;-79
2021/05/06 12:11:07;;;;;;;2.53;1.98;;;13.80;99.90;;;;;;12040806;28;20057;-80
2021/05/06 12:16:53;;;;;;;1.70;1.60;;;13.90;99.90;;;;;;12045929;28;20052;-79
2021/05/06 12:22:43;;;;;;;2.03;1.70;;;13.90;99.90;;;;;;12040107;28;20052;-78
2021/05/06 12:28:40;;;;;;;3.08;2.33;;;13.80;99.90;;;;;;12035390;28;20055;-81
2021/05/06 12:34:26;;;;;;;2.50;1.88;;;13.80;99.90;;;;;;12041088;28;20059;-81
2021/05/06 12:40:14;;;;;;;3.53;2.40;;;13.80;99.90;;;;;;12041048;28;20067;-82
2021/05/06 12:46:09;;;;;;;4.72;2.22;;;13.80;99.90;;;;;;12041239;28;20051;-80
2021/05/06 12:51:57;;;;;;;3.42;1.63;;;13.90;99.90;;;;;;12040277;28;20063;-80
2021/05/06 12:57:45;;;;;;;2.22;1.77;;;14.10;99.90;;;;;;12040637;28;20053;-80
2021/05/06 13:03:33;;;;;;;3.83;2.10;;;14.00;99.90;;;;;;12038311;28;20048;-80
2021/05/06 13:09:19;;;;;;;3.20;1.73;;;14.10;99.90;;;;;;12040847;28;20060;-80
2021/05/06 13:15:09;;;;;;;2.10;1.90;;;14.00;99.90;;;;;;12038896;28;20048;-80
2021/05/06 13:20:55;;;;;;;2.47;2.05;;;13.70;99.90;;;;;;12042900;28;20048;-80
2021/05/06 13:26:44;;;;;;;2.83;2.47;;;13.80;99.90;;;;;;12036105;28;20128;-79
2021/05/06 13:32:35;;;;;;;4.82;3.00;;;13.70;99.90;;;;;;12042305;28;20052;-80
2021/05/06 13:38:22;;;;;;;4.70;3.35;;;13.50;99.90;;;;;;12034111;28;20494;-79
2021/05/06 13:44:10;;;;;;;5.68;3.40;;;13.10;99.90;;;;;;12035631;28;20435;-78
2021/05/06 13:49:57;;;;;;;4.22;2.92;;;13.10;99.90;;;;;;12038564;28;20491;-77
2021/05/06 13:55:43;;;;;;;4.20;2.05;;;13.60;99.90;;;;;;12036241;28;20045;-79
2021/05/06 14:01:30;;;;;;;3.58;3.20;;;13.60;99.90;;;;;;12038842;28;20059;-78
2021/05/06 14:07:17;;;;;;;5.03;3.80;;;13.80;99.90;;;;;;12048960;28;20078;-78
2021/05/06 14:13:04;;;;;;;4.63;4.18;;;14.00;99.90;;;;;;12058251;28;20052;-78
2021/05/06 14:18:50;;;;;;;7.10;5.13;;;14.30;99.90;;;;;;12036834;28;20107;-78
2021/05/06 14:24:37;;;;;;;5.22;3.90;;;14.30;99.90;;;;;;12029966;28;20044;-80
2021/05/06 14:30:24;;;;;;;6.13;4.82;;;13.70;99.90;;;;;;12018285;28;20057;-82
2021/05/06 14:36:12;;;;;;;6.45;5.28;;;13.80;99.90;;;;;;12037972;28;20059;-81
2021/05/06 14:41:59;;;;;;;6.25;4.88;;;14.00;99.90;;;;;;12034622;28;20400;-81
2021/05/06 14:47:47;;;;;;;7.32;4.93;;;13.90;99.90;;;;;;12038618;28;20055;-81
2021/05/06 14:53:33;;;;;;;8.50;5.35;;;14.00;99.90;;;;;;12032233;28;20052;-82
2021/05/06 14:59:20;;;;;;;4.93;4.45;;;14.00;99.90;;;;;;12041892;28;20095;-81
2021/05/06 15:05:10;;;;;;;6.00;4.78;;;14.00;99.90;;;;;;12038984;28;20073;-82
2021/05/06 15:10:57;;;;;;;5.25;3.60;;;13.90;99.90;;;;;;12042717;28;20055;-83
2021/05/06 15:16:44;;;;;;;4.93;3.90;;;14.20;99.90;;;;;;12042110;28;20056;-82
2021/05/06 15:22:30;;;;;;;4.82;3.78;;;14.90;99.90;;;;;;12043320;28;20782;-76
2021/05/06 15:28:17;;;;;;;4.60;3.58;;;15.70;99.90;;;;;;12044219;28;20048;-75
2021/05/06 15:34:04;;;;;;;3.58;3.25;;;15.20;99.90;;;;;;12043667;28;20045;-81
2021/05/06 15:39:50;;;;;;;4.28;3.33;;;14.90;99.90;;;;;;12046092;28;20078;-82
2021/05/06 15:45:41;;;;;;;6.78;4.05;;;14.60;99.90;;;;;;12039310;28;20111;-81
2021/05/06 15:51:28;;;;;;;6.85;3.80;;;14.30;99.90;;;;;;12044127;28;20056;-82
2021/05/06 15:57:15;;;;;;;5.53;4.35;;;14.20;99.90;;;;;;12049705;28;20056;-81
2021/05/06 16:03:03;;;;;;;6.30;4.10;;;14.00;99.90;;;;;;12045884;28;20051;-80
2021/05/06 16:08:53;;;;;;;6.32;4.00;;;14.00;99.90;;;;;;12049984;28;20412;-81
2021/05/06 16:14:40;;;;;;;3.15;2.67;;;14.10;99.90;;;;;;12043660;28;20190;-82
2021/05/06 16:20:30;;;;;;;2.83;2.53;;;13.90;99.90;;;;;;12037190;28;20051;-81
2021/05/06 16:26:18;;;;;;;5.57;2.80;;;14.00;99.90;;;;;;12043706;28;20048;-78
2021/05/06 16:32:06;;;;;;;4.25;2.67;;;14.30;99.90;;;;;;12062424;28;20063;-79
2021/05/06 16:37:56;;;;;;;5.18;3.92;;;13.90;99.90;;;;;;12039452;28;20071;-76
2021/05/06 16:43:59;;;;;;;3.20;2.90;;;13.80;99.90;;;;;;12041808;28;20062;-78
2021/05/06 16:49:45;;;;;;;5.13;2.20;;;13.50;99.90;;;;;;12047174;28;20040;-77
2021/05/06 16:55:34;;;;;;;3.05;2.30;;;13.70;99.90;;;;;;12039855;28;20044;-78
2021/05/06 17:01:23;;;;;;;2.67;2.20;;;13.90;99.90;;;;;;12042184;28;20048;-78
2021/05/06 17:07:10;;;;;;;1.90;1.67;;;14.10;99.90;;;;;;12049427;28;20070;-79
2021/05/06 17:12:56;;;;;;;1.80;1.70;;;14.20;99.90;;;;;;12041593;28;20049;-80
2021/05/06 17:18:45;;;;;;;1.67;1.58;;;14.00;99.90;;;;;;12041189;28;20048;-79
2021/05/06 17:24:32;;;;;;;3.47;1.85;;;13.90;99.90;;;;;;12048651;28;20061;-79
2021/05/06 17:30:19;;;;;;;2.63;2.00;;;13.90;99.90;;;;;;12051079;28;20055;-79
2021/05/06 17:36:07;;;;;;;2.00;1.80;;;13.90;99.90;;;;;;12040684;28;20108;-78
2021/05/06 17:41:53;;;;;;;6.13;1.95;;;15.30;99.90;;;;;;12034497;28;20055;-77
2021/05/06 17:47:41;;;;;;;2.58;2.13;;;15.50;99.90;;;;;;12038513;28;20052;-80
2021/05/06 17:53:29;;;;;;;2.70;2.20;;;15.20;99.90;;;;;;12040344;27;20052;-79
2021/05/06 17:59:17;;;;;;;2.70;2.25;;;14.60;99.90;;;;;;12047878;28;20143;-78
2021/05/06 18:05:15;;;;;;;;;;;;;;;;;;;;;
2021/05/06 18:11:06;;;;;;;6.93;2.50;;;14.00;99.90;;;;;;12034627;28;20172;-77
2021/05/06 18:16:52;;;;;;;4.22;2.22;;;13.90;99.90;;;;;;12030354;28;20462;-80
2021/05/06 18:22:39;;;;;;;3.50;1.58;;;13.70;99.90;;;;;;12033690;28;20044;-80
2021/05/06 18:28:26;;;;;;;3.25;1.80;;;13.60;99.90;;;;;;12033428;28;20056;-79
2021/05/06 18:34:12;;;;;;;33.50;18.70;;;13.40;99.90;;;;;;12035241;28;20064;-79
2021/05/06 18:40:00;;;;;;;4.55;2.70;;;13.10;99.90;;;;;;12040417;28;20053;-79
2021/05/06 18:45:49;;;;;;;5.18;2.33;;;13.20;99.90;;;;;;12042572;28;20551;-81
2021/05/06 18:51:39;;;;;;;4.70;2.60;;;13.00;99.90;;;;;;12032487;28;20056;-81
2021/05/06 18:57:25;;;;;;;4.15;2.80;;;13.00;99.90;;;;;;12051743;28;20127;-80
2021/05/06 19:03:13;;;;;;;4.60;2.70;;;13.20;99.90;;;;;;12054510;28;20044;-82
2021/05/06 19:08:59;;;;;;;5.25;2.70;;;13.20;99.90;;;;;;12074582;28;20151;-82
2021/05/06 19:14:46;;;;;;;4.28;2.40;;;13.30;99.90;;;;;;12051205;28;20658;-80
2021/05/06 19:20:33;;;;;;;4.88;3.30;;;13.40;99.90;;;;;;12047455;28;20067;-84
2021/05/06 19:26:20;;;;;;;7.22;4.15;;;13.30;99.90;;;;;;12050936;28;20045;-84
2021/05/06 19:32:06;;;;;;;9.70;4.00;;;13.10;99.90;;;;;;12048810;28;20074;-77
2021/05/06 19:37:53;;;;;;;8.90;4.10;;;13.20;99.90;;;;;;12042667;28;20133;-76
2021/05/06 19:43:45;;;;;;;8.32;5.57;;;13.10;99.90;;;;;;12044522;28;20044;-76
2021/05/06 19:49:32;;;;;;;11.10;6.13;;;12.60;99.90;;;;;;12021170;28;20049;-76
2021/05/06 19:55:19;;;;;;;9.30;4.90;;;12.60;99.90;;;;;;12038702;28;20518;-75
2021/05/06 20:01:06;;;;;;;6.25;4.68;;;12.50;99.90;;;;;;12040463;28;20101;-76
2021/05/06 20:06:53;;;;;;;8.88;5.03;;;12.40;99.90;;;;;;12039586;28;20059;-76
2021/05/06 20:12:40;;;;;;;9.90;6.03;;;12.40;99.90;;;;;;12039415;28;20049;-76
2021/05/06 20:18:27;;;;;;;7.38;5.93;;;12.50;99.90;;;;;;12043178;28;20101;-76
2021/05/06 20:24:13;;;;;;;6.75;5.60;;;12.60;99.90;;;;;;12033287;28;20465;-84
2021/05/06 20:30:01;;;;;;;8.60;5.78;;;12.60;99.90;;;;;;12045384;28;20462;-83
2021/05/06 20:35:47;;;;;;;8.60;5.80;;;12.60;99.90;;;;;;12043066;28;20044;-83
